Time;durP1;ratioP1;P1;durP2;ratioP2;P2;SDS_P1;SDS_P2;PMS_P1;PMS_P2;Temp;Humidity;BMP_temperature;BMP_pressure;BME280_temperature;BME280_humidity;BME280_pressure;Samples;Min_cycle;Max_cycle;Signal;HPM_P1;HPM_P2
2023/08/09 00:01:13;;;;;;;3.28;1.30;;;14.00;99.90;;;;;;4984459;28;20096;-73
2023/08/09 00:03:59;;;;;;;4.45;1.48;;;14.00;99.90;;;;;;4971741;28;20050;-73
2023/08/09 00:06:45;;;;;;;2.70;1.35;;;13.90;99.90;;;;;;4988667;28;20034;-73
2023/08/09 00:09:31;;;;;;;4.10;1.50;;;13.90;99.90;;;;;;5008485;28;20054;-73
2023/08/09 00:12:17;;;;;;;3.35;1.40;;;13.90;99.90;;;;;;4979995;28;20549;-73
2023/08/09 00:15:05;;;;;;;2.83;1.55;;;13.90;99.90;;;;;;4976678;28;20050;-74
2023/08/09 00:17:51;;;;;;;2.75;1.50;;;13.90;99.90;;;;;;4981241;28;20117;-73
2023/08/09 00:20:37;;;;;;;3.38;1.67;;;13.90;99.90;;;;;;4980493;28;20042;-74
2023/08/09 00:23:24;;;;;;;4.32;1.75;;;13.90;99.90;;;;;;4991039;28;20056;-73
2023/08/09 00:26:10;;;;;;;5.32;1.75;;;13.90;99.90;;;;;;4991608;28;20126;-73
2023/08/09 00:28:56;;;;;;;4.43;1.63;;;13.90;99.90;;;;;;4987505;28;20041;-73
2023/08/09 00:31:42;;;;;;;3.55;1.50;;;13.90;99.90;;;;;;4982200;28;20104;-73
2023/08/09 00:34:28;;;;;;;3.63;1.70;;;13.90;99.90;;;;;;4967634;28;20039;-74
2023/08/09 00:37:14;;;;;;;5.50;2.10;;;14.00;99.90;;;;;;4980038;28;20046;-74
2023/08/09 00:40:00;;;;;;;5.75;1.67;;;14.00;99.90;;;;;;4975772;28;20396;-73
2023/08/09 00:42:46;;;;;;;2.95;1.40;;;13.90;99.90;;;;;;4985808;28;20592;-73
2023/08/09 00:45:33;;;;;;;4.28;1.70;;;14.00;99.90;;;;;;5008405;28;20051;-73
2023/08/09 00:48:20;;;;;;;3.95;1.60;;;14.00;99.90;;;;;;5021610;28;20489;-73
2023/08/09 00:51:06;;;;;;;4.60;2.30;;;14.00;99.90;;;;;;4967857;28;20103;-73
2023/08/09 00:53:52;;;;;;;3.58;1.88;;;13.90;99.90;;;;;;4969426;28;20792;-74
2023/08/09 00:56:39;;;;;;;2.47;1.60;;;13.90;99.90;;;;;;4984101;28;20626;-74
2023/08/09 00:59:24;;;;;;;3.63;2.15;;;14.00;99.90;;;;;;4972475;28;20073;-74
2023/08/09 01:02:11;;;;;;;4.07;1.85;;;14.00;99.90;;;;;;4973049;28;20104;-74
2023/08/09 01:04:58;;;;;;;2.95;1.60;;;13.90;99.90;;;;;;4994588;28;20045;-74
2023/08/09 01:07:52;;;;;;;2.83;1.60;;;13.90;99.90;;;;;;4980820;28;20046;-74
2023/08/09 01:10:47;;;;;;;3.75;1.60;;;14.00;99.90;;;;;;4979545;28;20042;-74
2023/08/09 01:13:33;;;;;;;4.07;1.90;;;14.00;99.90;;;;;;4984292;28;20041;-74
2023/08/09 01:16:20;;;;;;;5.25;1.67;;;14.10;99.90;;;;;;4997840;28;20593;-74
2023/08/09 01:19:10;;;;;;;9.33;2.10;;;14.10;99.90;;;;;;4989233;28;20049;-73
2023/08/09 01:21:58;;;;;;;5.03;2.03;;;14.00;99.90;;;;;;5004472;28;20408;-73
2023/08/09 01:24:46;;;;;;;4.63;1.60;;;14.00;99.90;;;;;;5008628;28;20095;-73
2023/08/09 01:27:35;;;;;;;3.53;1.85;;;14.10;99.90;;;;;;4968582;28;20046;-74
2023/08/09 01:30:22;;;;;;;3.80;1.92;;;14.00;99.90;;;;;;5007912;28;20175;-74
2023/08/09 01:33:08;;;;;;;4.28;1.80;;;14.00;99.90;;;;;;4966563;28;20101;-73
2023/08/09 01:35:57;;;;;;;5.68;2.00;;;13.90;99.90;;;;;;4953360;28;20066;-73
2023/08/09 01:38:50;;;;;;;4.72;2.40;;;13.90;99.90;;;;;;4982821;28;20041;-73
2023/08/09 01:41:36;;;;;;;4.32;1.80;;;14.00;99.90;;;;;;4978679;28;20121;-74
2023/08/09 01:44:23;;;;;;;4.90;1.80;;;14.00;99.90;;;;;;4979835;28;20074;-73
2023/08/09 01:47:09;;;;;;;4.18;1.90;;;14.00;99.90;;;;;;4977827;28;20149;-74
2023/08/09 01:49:55;;;;;;;3.08;1.90;;;14.00;99.90;;;;;;4997561;28;20033;-74
2023/08/09 01:52:41;;;;;;;3.83;1.80;;;14.00;99.90;;;;;;4982150;28;20518;-74
2023/08/09 01:55:27;;;;;;;3.13;1.80;;;13.90;99.90;;;;;;4983051;28;20379;-73
2023/08/09 01:58:13;;;;;;;4.93;1.75;;;13.90;99.90;;;;;;4973022;28;20048;-74
2023/08/09 02:01:00;;;;;;;5.70;1.90;;;14.00;99.90;;;;;;4968632;28;20173;-74
2023/08/09 02:03:46;;;;;;;5.10;2.00;;;14.00;99.90;;;;;;4984476;28;20038;-73
2023/08/09 02:06:34;;;;;;;5.07;1.80;;;14.00;99.90;;;;;;4970311;28;20080;-74
2023/08/09 02:09:21;;;;;;;8.07;2.60;;;13.80;99.90;;;;;;4968675;28;20112;-74
2023/08/09 02:12:07;;;;;;;4.43;1.80;;;13.90;99.90;;;;;;4981907;28;20041;-73
2023/08/09 02:14:53;;;;;;;3.97;1.98;;;13.80;99.90;;;;;;4990058;28;20052;-74
2023/08/09 02:17:38;;;;;;;2.72;1.75;;;13.80;99.90;;;;;;4999875;28;20042;-74
2023/08/09 02:20:25;;;;;;;7.30;1.90;;;13.90;99.90;;;;;;4983018;28;20778;-74
2023/08/09 02:23:11;;;;;;;4.95;1.85;;;13.90;99.90;;;;;;4973415;28;20046;-74
2023/08/09 02:25:57;;;;;;;6.15;1.63;;;13.80;99.90;;;;;;4981696;28;20042;-73
2023/08/09 02:28:42;;;;;;;7.78;1.70;;;13.80;99.90;;;;;;4982853;28;20061;-74
2023/08/09 02:31:29;;;;;;;4.10;1.90;;;13.90;99.90;;;;;;4986029;28;20047;-73
2023/08/09 02:34:19;;;;;;;4.85;1.90;;;13.70;99.90;;;;;;4987225;28;20046;-73
2023/08/09 02:37:05;;;;;;;4.93;1.45;;;13.70;99.90;;;;;;4983395;28;20081;-74
2023/08/09 02:39:51;;;;;;;2.67;1.35;;;13.70;99.90;;;;;;4982744;28;20049;-74
2023/08/09 02:42:37;;;;;;;4.53;1.70;;;13.70;99.90;;;;;;4981349;28;20447;-75
2023/08/09 02:45:23;;;;;;;3.65;1.65;;;13.70;99.90;;;;;;4991512;28;20058;-74
2023/08/09 02:48:09;;;;;;;4.40;2.03;;;13.70;99.90;;;;;;4994148;28;20497;-74
2023/08/09 02:50:55;;;;;;;3.78;1.90;;;13.70;99.90;;;;;;4981157;28;20034;-74
2023/08/09 02:54:04;;;;;;;3.55;1.67;;;13.70;99.90;;;;;;4975342;28;20530;-74
2023/08/09 02:56:50;;;;;;;3.85;1.92;;;13.80;99.90;;;;;;4981560;28;20050;-74
2023/08/09 02:59:36;;;;;;;5.40;2.30;;;13.70;99.90;;;;;;4987235;28;20366;-74
2023/08/09 03:02:25;;;;;;;3.72;2.00;;;13.80;99.90;;;;;;4974668;28;20068;-74
2023/08/09 03:05:11;;;;;;;3.80;2.08;;;13.80;99.90;;;;;;4967068;28;20042;-73
2023/08/09 03:07:57;;;;;;;4.47;2.22;;;13.80;99.90;;;;;;4985494;28;20446;-74
2023/08/09 03:10:43;;;;;;;3.88;2.00;;;13.80;99.90;;;;;;4984419;28;20038;-74
2023/08/09 03:13:29;;;;;;;6.07;2.10;;;13.70;99.90;;;;;;5000554;28;20038;-74
2023/08/09 03:16:15;;;;;;;5.65;2.00;;;13.50;99.90;;;;;;4995855;28;20033;-74
2023/08/09 03:19:01;;;;;;;6.90;2.28;;;13.50;99.90;;;;;;4979057;28;20057;-74
2023/08/09 03:21:47;;;;;;;5.18;2.75;;;13.40;99.90;;;;;;4976124;28;20050;-74
2023/08/09 03:24:33;;;;;;;5.93;2.50;;;13.50;99.90;;;;;;4967863;28;20125;-74
2023/08/09 03:27:19;;;;;;;4.65;2.30;;;13.40;99.90;;;;;;4966706;28;20050;-74
2023/08/09 03:30:06;;;;;;;6.60;2.20;;;13.40;99.90;;;;;;4979812;28;20042;-74
2023/08/09 03:32:52;;;;;;;4.50;2.30;;;13.30;99.90;;;;;;4966468;28;20034;-74
2023/08/09 03:35:39;;;;;;;5.07;2.25;;;13.30;99.90;;;;;;4964730;28;20034;-74
2023/08/09 03:38:25;;;;;;;5.68;2.28;;;13.30;99.90;;;;;;4992253;28;20030;-73
2023/08/09 03:41:11;;;;;;;4.43;2.50;;;13.40;99.90;;;;;;4969724;28;20490;-73
2023/08/09 03:43:58;;;;;;;4.10;2.28;;;13.40;99.90;;;;;;4982358;28;20045;-73
2023/08/09 03:46:44;;;;;;;4.57;2.40;;;13.40;99.90;;;;;;4960761;28;20069;-73
2023/08/09 03:49:30;;;;;;;4.85;2.58;;;13.40;99.90;;;;;;4972382;28;20412;-73
2023/08/09 03:52:16;;;;;;;6.15;2.50;;;13.40;99.90;;;;;;4984192;28;20034;-74
2023/08/09 03:55:03;;;;;;;4.25;2.40;;;13.50;99.90;;;;;;4986327;28;20049;-73
2023/08/09 03:57:49;;;;;;;5.95;2.42;;;13.50;99.90;;;;;;4966661;28;20042;-73
2023/08/09 04:00:34;;;;;;;5.10;2.35;;;13.40;99.90;;;;;;4979554;28;20879;-73
2023/08/09 04:03:20;;;;;;;4.63;2.15;;;13.30;99.90;;;;;;4993626;28;20100;-73
2023/08/09 04:06:06;;;;;;;6.28;2.90;;;13.40;99.90;;;;;;4982393;28;20546;-73
2023/08/09 04:08:52;;;;;;;6.38;2.80;;;13.40;99.90;;;;;;4976629;28;20482;-73
2023/08/09 04:11:39;;;;;;;4.20;2.30;;;13.40;99.90;;;;;;4982924;28;20045;-73
2023/08/09 04:14:26;;;;;;;5.95;2.33;;;13.40;99.90;;;;;;4964698;28;20048;-73
2023/08/09 04:17:12;;;;;;;7.50;2.97;;;13.30;99.90;;;;;;4985969;28;20052;-73
2023/08/09 04:19:58;;;;;;;5.90;2.92;;;13.30;99.90;;;;;;4970663;28;20072;-73
2023/08/09 04:22:44;;;;;;;4.57;2.92;;;13.20;99.90;;;;;;4982968;28;20085;-73
2023/08/09 04:25:30;;;;;;;4.18;2.50;;;13.30;99.90;;;;;;4984414;28;20046;-73
2023/08/09 04:28:17;;;;;;;4.85;2.80;;;13.30;99.90;;;;;;4976691;28;20113;-73
2023/08/09 04:31:05;;;;;;;5.18;2.78;;;13.20;99.90;;;;;;4992747;28;20042;-73
2023/08/09 04:33:51;;;;;;;8.57;2.90;;;13.20;99.90;;;;;;4972612;28;20033;-73
2023/08/09 04:36:38;;;;;;;6.35;3.20;;;13.20;99.90;;;;;;4997899;28;20048;-73
2023/08/09 04:39:26;;;;;;;5.97;3.25;;;13.10;99.90;;;;;;4970917;28;20070;-73
2023/08/09 04:42:11;;;;;;;6.45;2.70;;;13.10;99.90;;;;;;4977949;28;20050;-74
2023/08/09 04:44:57;;;;;;;4.53;2.80;;;13.00;99.90;;;;;;4991342;28;20516;-73
2023/08/09 04:47:43;;;;;;;5.95;2.85;;;13.10;99.90;;;;;;4980458;28;20046;-73
2023/08/09 04:50:29;;;;;;;6.40;2.83;;;13.10;99.90;;;;;;4982651;28;20414;-73
2023/08/09 04:53:17;;;;;;;4.90;2.63;;;12.90;99.90;;;;;;4982290;28;20037;-73
2023/08/09 04:56:03;;;;;;;3.67;2.80;;;13.00;99.90;;;;;;4994882;28;20126;-73
2023/08/09 04:58:49;;;;;;;6.45;3.25;;;12.90;99.90;;;;;;4982897;28;20042;-73
2023/08/09 05:01:35;;;;;;;6.45;2.70;;;12.90;99.90;;;;;;4983723;28;20124;-73
2023/08/09 05:04:21;;;;;;;7.63;2.80;;;13.00;99.90;;;;;;4978966;28;20165;-73
2023/08/09 05:07:07;;;;;;;4.38;2.90;;;13.00;99.90;;;;;;4983861;28;20124;-73
2023/08/09 05:09:53;;;;;;;6.13;3.05;;;13.00;99.90;;;;;;4969383;28;20049;-73
2023/08/09 05:12:39;;;;;;;6.82;2.95;;;13.10;99.90;;;;;;4988945;28;20044;-73
2023/08/09 05:15:26;;;;;;;6.00;3.10;;;13.00;99.90;;;;;;4997655;28;20046;-73
2023/08/09 05:18:13;;;;;;;5.47;3.50;;;13.00;99.90;;;;;;4984884;28;20131;-73
2023/08/09 05:21:01;;;;;;;7.18;3.40;;;12.90;99.90;;;;;;4981137;28;20041;-74
2023/08/09 05:23:47;;;;;;;5.55;3.20;;;12.90;99.90;;;;;;4980501;28;20038;-74
2023/08/09 05:26:35;;;;;;;6.93;3.05;;;13.00;99.90;;;;;;4997313;28;20278;-74
2023/08/09 05:29:21;;;;;;;;;;;13.00;99.90;;;;;;4994623;28;20037;-74
2023/08/09 05:32:08;;;;;;;6.20;3.42;;;13.10;99.90;;;;;;4997790;28;19975;-74
2023/08/09 05:34:54;;;;;;;5.30;3.42;;;13.00;99.90;;;;;;5009280;28;20596;-74
2023/08/09 05:37:40;;;;;;;8.32;3.20;;;13.00;99.90;;;;;;4984729;28;20116;-74
2023/08/09 05:40:26;;;;;;;5.65;3.30;;;13.00;99.90;;;;;;4966728;28;20046;-74
2023/08/09 05:43:12;;;;;;;6.97;3.70;;;13.10;99.90;;;;;;4951910;28;20732;-74
2023/08/09 05:45:58;;;;;;;5.18;3.63;;;13.10;99.90;;;;;;4992737;28;20046;-75
2023/08/09 05:48:44;;;;;;;6.80;3.22;;;13.00;99.90;;;;;;4983299;28;20092;-74
2023/08/09 05:51:31;;;;;;;6.47;3.58;;;13.00;99.90;;;;;;4989386;28;20378;-74
2023/08/09 05:54:17;;;;;;;9.55;3.88;;;13.00;99.90;;;;;;4964816;28;20467;-75
2023/08/09 05:57:03;;;;;;;7.88;3.38;;;13.10;99.90;;;;;;4970553;28;20093;-74
2023/08/09 05:59:49;;;;;;;7.70;3.97;;;13.10;99.90;;;;;;4970927;28;20042;-75
2023/08/09 06:02:35;;;;;;;5.47;3.50;;;12.90;99.90;;;;;;4987129;28;20790;-74
2023/08/09 06:05:23;;;;;;;5.50;3.08;;;13.00;99.90;;;;;;5002182;28;20037;-75
2023/08/09 06:08:09;;;;;;;10.63;4.05;;;13.10;99.90;;;;;;4975983;28;20486;-74
2023/08/09 06:10:55;;;;;;;7.80;3.78;;;13.10;99.90;;;;;;4955622;28;20133;-74
2023/08/09 06:13:41;;;;;;;5.97;3.10;;;13.10;99.90;;;;;;4981945;28;20037;-75
2023/08/09 06:16:27;;;;;;;6.32;3.40;;;13.20;99.90;;;;;;4997064;28;20386;-74
2023/08/09 06:19:13;;;;;;;7.80;3.17;;;13.20;99.90;;;;;;4974606;28;20828;-74
2023/08/09 06:21:59;;;;;;;8.52;3.03;;;13.30;99.90;;;;;;4956031;28;20042;-74
2023/08/09 06:24:46;;;;;;;7.93;3.95;;;13.40;99.90;;;;;;4964320;28;20068;-74
2023/08/09 06:27:32;;;;;;;10.67;3.13;;;13.40;99.90;;;;;;5002508;28;20141;-75
2023/08/09 06:30:18;;;;;;;8.75;3.15;;;13.50;99.90;;;;;;4997284;28;20117;-75
2023/08/09 06:33:04;;;;;;;5.15;2.63;;;13.50;99.90;;;;;;4965600;28;20061;-75
2023/08/09 06:35:50;;;;;;;6.57;2.88;;;13.60;99.90;;;;;;4992735;28;20414;-74
2023/08/09 06:38:36;;;;;;;4.45;2.50;;;13.70;99.90;;;;;;4968129;28;20070;-74
2023/08/09 06:41:23;;;;;;;5.53;2.33;;;13.70;99.90;;;;;;4975177;28;20044;-74
2023/08/09 06:44:09;;;;;;;6.55;2.40;;;13.80;99.90;;;;;;5015131;28;20378;-73
2023/08/09 06:46:55;;;;;;;4.90;2.00;;;13.80;99.90;;;;;;4972330;28;20356;-74
2023/08/09 06:49:41;;;;;;;4.53;2.35;;;13.80;99.90;;;;;;4993377;28;20107;-74
2023/08/09 06:52:28;;;;;;;6.07;2.08;;;13.90;99.90;;;;;;5016607;28;20038;-74
2023/08/09 06:55:14;;;;;;;4.70;1.90;;;13.90;99.90;;;;;;4974774;28;20832;-74
2023/08/09 06:58:00;;;;;;;8.52;2.45;;;14.00;99.90;;;;;;4990215;28;20046;-74
2023/08/09 07:00:46;;;;;;;7.53;2.10;;;14.00;99.90;;;;;;4985673;28;20073;-74
2023/08/09 07:03:32;;;;;;;8.95;2.13;;;14.00;99.90;;;;;;4967774;28;20522;-74
2023/08/09 07:06:18;;;;;;;4.88;1.90;;;14.10;99.90;;;;;;4995626;28;20042;-74
2023/08/09 07:09:05;;;;;;;6.43;1.83;;;14.10;99.90;;;;;;4967171;28;20100;-74
2023/08/09 07:11:51;;;;;;;6.10;1.70;;;14.20;99.90;;;;;;4993278;28;20487;-73
2023/08/09 07:14:37;;;;;;;6.88;2.10;;;14.20;99.90;;;;;;4998583;28;20042;-74
2023/08/09 07:17:23;;;;;;;6.65;2.03;;;14.30;99.90;;;;;;4999628;28;20044;-74
2023/08/09 07:20:14;;;;;;;5.65;2.03;;;14.40;99.90;;;;;;5001024;28;20045;-74
2023/08/09 07:23:00;;;;;;;4.32;1.73;;;14.50;99.90;;;;;;5033957;28;20033;-74
2023/08/09 07:25:46;;;;;;;6.95;1.85;;;14.60;99.90;;;;;;4980953;28;20107;-74
2023/08/09 07:28:32;;;;;;;5.38;1.80;;;14.60;99.90;;;;;;4971326;28;20056;-74
2023/08/09 07:31:19;;;;;;;6.18;1.73;;;14.70;99.90;;;;;;4988032;28;20040;-74
2023/08/09 07:34:05;;;;;;;7.80;2.22;;;14.80;99.90;;;;;;4970455;28;20096;-74
2023/08/09 07:36:51;;;;;;;5.85;1.83;;;14.70;99.90;;;;;;4982513;28;20160;-74
2023/08/09 07:39:37;;;;;;;5.63;1.65;;;14.70;99.90;;;;;;4999066;28;20046;-73
2023/08/09 07:42:23;;;;;;;4.50;1.67;;;14.70;99.90;;;;;;4981973;28;20540;-74
2023/08/09 07:45:12;;;;;;;6.30;1.60;;;14.80;99.90;;;;;;4968222;28;20050;-74
2023/08/09 07:47:58;;;;;;;6.30;2.00;;;14.90;99.90;;;;;;4998549;28;20041;-74
2023/08/09 07:50:44;;;;;;;7.90;2.30;;;15.00;99.90;;;;;;4999970;28;20133;-74
2023/08/09 07:53:30;;;;;;;5.32;1.75;;;15.00;99.90;;;;;;4970901;28;20398;-74
2023/08/09 07:56:17;;;;;;;5.05;1.88;;;15.10;99.90;;;;;;4980552;28;20049;-74
2023/08/09 07:59:03;;;;;;;6.47;1.50;;;15.20;99.90;;;;;;4984639;28;20463;-74
2023/08/09 08:01:49;;;;;;;7.03;2.15;;;15.20;99.90;;;;;;4989595;28;20108;-74
2023/08/09 08:04:35;;;;;;;6.47;2.10;;;15.40;99.90;;;;;;4958438;28;20038;-74
2023/08/09 08:07:21;;;;;;;4.22;1.55;;;15.50;99.90;;;;;;4981250;28;20414;-74
2023/08/09 08:10:13;;;;;;;5.32;1.95;;;15.40;99.90;;;;;;4976248;28;20538;-74
2023/08/09 08:13:00;;;;;;;5.93;1.70;;;15.40;99.90;;;;;;4989355;28;20116;-74
2023/08/09 08:15:46;;;;;;;4.45;1.80;;;15.50;99.90;;;;;;4992766;28;20037;-74
2023/08/09 08:18:32;;;;;;;7.78;1.55;;;15.50;99.90;;;;;;4972372;28;20100;-74
2023/08/09 08:21:18;;;;;;;5.97;1.60;;;15.60;99.90;;;;;;4991094;28;20388;-75
2023/08/09 08:24:07;;;;;;;5.35;1.60;;;15.60;99.90;;;;;;4982489;28;20042;-74
2023/08/09 08:26:55;;;;;;;4.85;1.60;;;15.70;99.90;;;;;;5003761;28;20050;-74
2023/08/09 08:29:40;;;;;;;6.00;1.73;;;15.80;99.90;;;;;;4980444;28;20088;-75
2023/08/09 08:32:26;;;;;;;5.57;1.50;;;15.90;99.90;;;;;;4988804;28;20421;-74
2023/08/09 08:35:13;;;;;;;6.15;1.20;;;15.90;99.90;;;;;;4966702;28;20356;-74
2023/08/09 08:37:59;;;;;;;8.82;1.63;;;15.90;99.90;;;;;;4960187;28;20057;-75
2023/08/09 08:40:46;;;;;;;7.75;1.80;;;15.90;99.90;;;;;;4967540;28;20474;-75
2023/08/09 08:43:31;;;;;;;6.40;1.40;;;15.80;99.90;;;;;;4967761;28;20049;-74
2023/08/09 08:46:17;;;;;;;6.20;1.48;;;15.80;99.90;;;;;;4977716;28;20053;-74
2023/08/09 08:49:04;;;;;;;5.90;1.25;;;16.00;99.90;;;;;;4965808;28;20041;-74
2023/08/09 08:51:53;;;;;;;6.55;1.50;;;16.10;99.90;;;;;;4973969;28;20042;-74
2023/08/09 08:54:39;;;;;;;5.68;1.50;;;16.30;99.90;;;;;;4965134;28;20097;-75
2023/08/09 08:57:26;;;;;;;5.38;1.38;;;16.30;99.90;;;;;;4935530;28;20393;-75
2023/08/09 09:00:16;;;;;;;4.93;1.30;;;16.30;99.90;;;;;;4963853;28;20043;-74
2023/08/09 09:03:04;;;;;;;5.95;1.50;;;16.40;99.90;;;;;;4956873;28;20074;-74
2023/08/09 09:05:50;;;;;;;;;;;16.30;99.90;;;;;;4954684;28;20042;-74
2023/08/09 09:08:44;;;;;;;5.40;1.10;;;16.40;99.90;;;;;;4958852;28;20329;-75
2023/08/09 09:11:31;;;;;;;8.52;1.20;;;16.50;99.90;;;;;;4964795;28;20038;-75
2023/08/09 09:14:17;;;;;;;8.00;1.20;;;16.50;99.90;;;;;;4934890;28;20096;-75
2023/08/09 09:17:03;;;;;;;5.03;1.27;;;16.70;99.90;;;;;;4947491;28;20269;-75
2023/08/09 09:19:50;;;;;;;8.43;1.35;;;16.90;99.90;;;;;;4956711;28;20109;-74
2023/08/09 09:22:36;;;;;;;7.32;1.17;;;16.90;99.90;;;;;;4945422;28;20129;-75
2023/08/09 09:25:22;;;;;;;7.35;1.13;;;16.70;99.90;;;;;;4944315;28;20050;-75
2023/08/09 09:28:18;;;;;;;6.22;1.15;;;16.60;99.90;;;;;;4939625;28;20483;-74
2023/08/09 09:31:04;;;;;;;7.03;1.55;;;16.70;99.90;;;;;;4964117;28;20470;-75
2023/08/09 09:33:51;;;;;;;5.50;1.30;;;16.80;99.90;;;;;;4971920;28;20478;-75
2023/08/09 09:36:42;;;;;;;4.55;1.50;;;16.90;99.90;;;;;;4935308;28;20051;-75
2023/08/09 09:39:28;;;;;;;4.90;1.15;;;16.90;99.90;;;;;;4943385;28;20042;-75
2023/08/09 09:42:14;;;;;;;5.28;1.20;;;17.00;99.90;;;;;;4942946;28;20506;-75
2023/08/09 09:45:05;;;;;;;5.80;1.30;;;17.30;99.90;;;;;;4956370;28;20066;-74
2023/08/09 09:47:52;;;;;;;1.60;0.93;;;17.20;99.90;;;;;;4961804;28;20390;-74
2023/08/09 09:50:38;;;;;;;3.45;0.88;;;17.00;99.90;;;;;;4949428;28;20615;-76
2023/08/09 09:53:24;;;;;;;6.85;1.60;;;17.00;99.90;;;;;;4960403;28;20653;-74
2023/08/09 09:56:10;;;;;;;3.55;1.25;;;17.00;99.90;;;;;;5021375;28;20076;-74
2023/08/09 09:58:56;;;;;;;5.30;1.27;;;17.00;99.90;;;;;;5007795;28;20037;-75
2023/08/09 10:01:44;;;;;;;5.40;1.02;;;16.90;99.90;;;;;;4969556;28;20034;-74
2023/08/09 10:04:30;;;;;;;5.90;1.02;;;16.90;99.90;;;;;;5007382;28;20076;-75
2023/08/09 10:07:16;;;;;;;6.78;1.23;;;16.90;99.90;;;;;;5001483;28;20589;-75
2023/08/09 10:10:03;;;;;;;7.72;1.20;;;17.10;99.90;;;;;;4977614;28;20040;-75
2023/08/09 10:12:53;;;;;;;4.57;1.20;;;17.20;99.90;;;;;;5003724;28;20482;-74
2023/08/09 10:16:06;;;;;;;4.22;1.20;;;17.20;99.90;;;;;;4969006;28;20038;-75
2023/08/09 10:18:57;;;;;;;4.93;1.00;;;17.40;99.90;;;;;;4980538;28;20042;-73
2023/08/09 10:21:44;;;;;;;2.90;0.90;;;17.40;99.90;;;;;;4985315;28;20044;-74
2023/08/09 10:24:31;;;;;;;3.30;1.00;;;17.30;99.90;;;;;;4968655;28;20070;-73
2023/08/09 10:27:49;;;;;;;4.10;0.93;;;17.40;99.90;;;;;;5012658;28;20042;-72
2023/08/09 10:30:48;;;;;;;7.07;1.42;;;17.60;99.90;;;;;;4992069;28;20049;-74
2023/08/09 10:33:35;;;;;;;5.07;1.15;;;17.80;99.90;;;;;;4971984;28;20132;-74
2023/08/09 10:36:33;;;;;;;2.45;0.85;;;17.90;99.90;;;;;;4986001;28;20128;-74
2023/08/09 10:39:19;;;;;;;3.38;0.90;;;17.90;99.90;;;;;;4986594;28;20111;-75
2023/08/09 10:42:09;;;;;;;6.47;1.10;;;18.10;99.20;;;;;;4990190;28;20041;-75
2023/08/09 10:45:04;;;;;;;4.35;1.13;;;18.20;99.50;;;;;;4967676;28;20050;-76
2023/08/09 10:47:50;;;;;;;4.80;1.00;;;18.30;99.10;;;;;;4967129;28;20042;-75
2023/08/09 10:50:36;;;;;;;4.10;0.90;;;18.50;97.40;;;;;;4982350;28;20478;-76
2023/08/09 10:53:22;;;;;;;2.80;0.90;;;18.60;99.20;;;;;;4981506;28;20038;-75
2023/08/09 10:56:34;;;;;;;4.20;0.93;;;18.80;98.20;;;;;;4986001;28;20120;-75
2023/08/09 10:59:27;;;;;;;5.40;0.85;;;18.80;97.50;;;;;;4968968;28;20550;-76
2023/08/09 11:02:15;;;;;;;3.63;0.80;;;18.60;97.90;;;;;;4981844;28;20042;-75
2023/08/09 11:05:02;;;;;;;2.38;0.90;;;18.30;97.00;;;;;;4974737;28;20068;-74
2023/08/09 11:07:50;;;;;;;4.95;1.73;;;18.10;97.50;;;;;;4994724;28;20049;-75
2023/08/09 11:10:40;;;;;;;5.00;1.02;;;18.50;97.30;;;;;;4998267;28;20152;-75
2023/08/09 11:13:27;;;;;;;1.88;0.75;;;18.50;96.70;;;;;;4967516;28;20053;-75
2023/08/09 11:16:13;;;;;;;4.57;1.00;;;18.40;96.90;;;;;;4965469;28;20830;-75
2023/08/09 11:19:08;;;;;;;5.38;0.88;;;18.60;97.90;;;;;;4965649;28;20108;-75
2023/08/09 11:21:56;;;;;;;6.38;0.93;;;18.80;97.90;;;;;;4980544;28;20048;-75
2023/08/09 11:24:42;;;;;;;5.40;1.00;;;18.70;96.10;;;;;;4958333;28;20033;-74
2023/08/09 11:27:28;;;;;;;5.65;0.80;;;18.80;97.20;;;;;;4953588;28;20153;-73
2023/08/09 11:30:14;;;;;;;3.80;1.08;;;18.80;98.00;;;;;;4976534;28;20108;-74
2023/08/09 11:33:08;;;;;;;3.90;1.20;;;19.00;97.20;;;;;;4960639;28;20076;-74
2023/08/09 11:35:55;;;;;;;3.55;0.85;;;19.10;97.00;;;;;;4970215;28;20046;-75
2023/08/09 11:38:41;;;;;;;3.08;0.90;;;18.80;96.50;;;;;;4981494;28;20422;-75
2023/08/09 11:41:27;;;;;;;2.75;0.93;;;19.00;95.60;;;;;;4975010;28;20053;-74
2023/08/09 11:44:14;;;;;;;3.40;1.00;;;19.00;95.90;;;;;;4997733;28;20041;-75
2023/08/09 11:47:01;;;;;;;9.23;1.30;;;19.00;95.60;;;;;;4987379;28;20054;-75
2023/08/09 11:49:46;;;;;;;3.00;1.00;;;18.90;96.30;;;;;;4998020;28;20069;-76
2023/08/09 11:52:32;;;;;;;2.15;0.80;;;18.80;94.90;;;;;;4990374;28;20045;-75
2023/08/09 11:55:19;;;;;;;5.35;0.93;;;18.80;95.10;;;;;;4992390;28;20053;-76
2023/08/09 11:58:05;;;;;;;4.65;0.73;;;19.00;95.10;;;;;;4981903;28;20379;-75
2023/08/09 12:00:51;;;;;;;2.47;0.80;;;19.30;94.80;;;;;;4962658;28;20046;-76
2023/08/09 12:03:38;;;;;;;3.15;0.95;;;19.40;94.30;;;;;;4977775;28;20145;-76
2023/08/09 12:06:44;;;;;;;3.03;1.02;;;19.50;95.40;;;;;;5006485;28;20537;-76
2023/08/09 12:09:37;;;;;;;3.08;0.90;;;19.80;93.70;;;;;;4989991;28;20398;-75
2023/08/09 12:12:39;;;;;;;3.67;0.90;;;19.50;92.80;;;;;;5007482;28;20720;-75
2023/08/09 12:15:26;;;;;;;3.22;0.90;;;19.50;92.60;;;;;;4980660;28;20049;-76
2023/08/09 12:18:12;;;;;;;5.45;1.20;;;19.60;92.40;;;;;;4967961;28;20050;-75
2023/08/09 12:20:58;;;;;;;4.40;1.10;;;20.00;93.20;;;;;;5001651;28;20128;-75
2023/08/09 12:23:44;;;;;;;5.20;0.90;;;20.30;93.10;;;;;;4986263;28;20492;-74
2023/08/09 12:26:32;;;;;;;3.15;1.20;;;20.40;93.10;;;;;;4990631;28;20045;-75
2023/08/09 12:29:18;;;;;;;2.47;0.88;;;20.50;92.10;;;;;;4983061;28;20467;-75
2023/08/09 12:32:05;;;;;;;2.13;0.80;;;20.70;92.80;;;;;;4974048;28;20067;-73
2023/08/09 12:34:51;;;;;;;3.97;0.93;;;20.40;92.10;;;;;;5005125;28;20095;-74
2023/08/09 12:37:37;;;;;;;2.30;0.88;;;20.50;91.80;;;;;;5003918;28;20037;-74
2023/08/09 12:40:24;;;;;;;2.00;0.77;;;20.40;92.00;;;;;;5018119;28;20057;-74
2023/08/09 12:43:09;;;;;;;3.75;0.70;;;20.00;91.90;;;;;;5004352;28;20037;-74
2023/08/09 12:45:55;;;;;;;4.25;0.85;;;20.10;91.70;;;;;;5018055;28;20056;-74
2023/08/09 12:48:41;;;;;;;1.75;0.80;;;20.30;92.10;;;;;;5002651;28;20076;-72
2023/08/09 12:51:28;;;;;;;2.72;0.80;;;20.50;91.80;;;;;;4959077;28;20038;-73
2023/08/09 12:54:14;;;;;;;3.38;0.70;;;20.50;91.10;;;;;;4997537;28;20466;-73
2023/08/09 12:57:01;;;;;;;3.30;0.93;;;20.50;90.60;;;;;;4971547;28;20065;-73
2023/08/09 12:59:47;;;;;;;1.83;0.90;;;20.50;91.70;;;;;;4966108;28;20391;-74
2023/08/09 13:02:33;;;;;;;1.90;0.90;;;20.80;90.40;;;;;;4994088;28;20045;-73
2023/08/09 13:05:19;;;;;;;2.42;0.80;;;20.50;91.30;;;;;;4997288;28;20042;-73
2023/08/09 13:08:05;;;;;;;1.48;0.80;;;20.50;88.60;;;;;;4997279;28;20045;-73
2023/08/09 13:10:51;;;;;;;3.15;0.95;;;20.50;90.70;;;;;;4975896;28;20396;-73
2023/08/09 13:13:38;;;;;;;2.50;0.93;;;20.80;90.30;;;;;;4963425;28;20482;-74
2023/08/09 13:16:24;;;;;;;2.83;0.98;;;21.10;90.40;;;;;;4970287;28;20068;-75
2023/08/09 13:19:10;;;;;;;3.28;1.05;;;21.20;90.30;;;;;;4985285;28;20034;-74
2023/08/09 13:21:56;;;;;;;3.45;0.90;;;21.10;88.80;;;;;;5002428;28;20077;-73
2023/08/09 13:24:42;;;;;;;1.90;1.00;;;20.60;90.50;;;;;;4968334;28;20034;-73
2023/08/09 13:27:27;;;;;;;3.40;1.00;;;20.60;88.80;;;;;;4964496;28;20134;-73
2023/08/09 13:30:13;;;;;;;2.92;1.10;;;20.80;88.30;;;;;;4996523;28;20086;-74
2023/08/09 13:32:59;;;;;;;2.25;0.75;;;20.90;89.50;;;;;;4965302;28;20046;-73
2023/08/09 13:35:45;;;;;;;3.38;1.00;;;20.70;88.50;;;;;;4996324;28;20532;-71
2023/08/09 13:38:41;;;;;;;1.45;0.70;;;21.00;88.10;;;;;;4956580;28;20140;-72
2023/08/09 13:41:27;;;;;;;2.63;0.80;;;21.20;85.10;;;;;;4983895;28;20048;-72
2023/08/09 13:44:13;;;;;;;1.63;0.70;;;21.10;84.70;;;;;;4981296;28;20077;-71
2023/08/09 13:46:59;;;;;;;3.63;0.90;;;21.10;84.90;;;;;;4980905;28;20066;-72
2023/08/09 13:49:45;;;;;;;3.33;0.95;;;21.10;85.20;;;;;;4982009;28;20053;-71
2023/08/09 13:52:31;;;;;;;2.65;1.00;;;21.00;85.60;;;;;;4982684;28;20085;-72
2023/08/09 13:55:17;;;;;;;2.88;1.05;;;21.10;86.40;;;;;;4995953;28;20050;-72
2023/08/09 13:58:04;;;;;;;2.88;0.98;;;21.20;83.40;;;;;;4958636;28;20052;-73
2023/08/09 14:00:50;;;;;;;2.25;1.05;;;21.40;85.00;;;;;;4989671;28;20104;-72
2023/08/09 14:03:36;;;;;;;2.53;0.80;;;21.50;84.50;;;;;;4967759;28;20053;-72
2023/08/09 14:06:22;;;;;;;1.65;0.80;;;21.60;83.10;;;;;;4986011;28;20053;-72
2023/08/09 14:09:08;;;;;;;2.13;0.85;;;21.80;81.60;;;;;;4968399;28;20149;-73
2023/08/09 14:11:54;;;;;;;1.95;0.80;;;21.70;81.80;;;;;;5015224;28;20045;-72
2023/08/09 14:14:40;;;;;;;3.25;0.63;;;21.90;82.70;;;;;;4986343;28;20046;-72
2023/08/09 14:17:26;;;;;;;2.15;0.95;;;21.40;82.40;;;;;;5000172;28;20092;-72
2023/08/09 14:20:19;;;;;;;4.07;0.90;;;21.50;82.00;;;;;;4966735;28;20042;-73
2023/08/09 14:23:05;;;;;;;2.00;0.57;;;21.80;81.10;;;;;;4996703;28;20683;-70
2023/08/09 14:25:51;;;;;;;3.17;0.80;;;21.50;81.90;;;;;;4980779;28;20046;-73
2023/08/09 14:28:37;;;;;;;4.85;0.88;;;21.70;80.10;;;;;;4966847;28;20046;-72
2023/08/09 14:31:23;;;;;;;1.65;0.70;;;22.00;81.90;;;;;;4968755;28;20092;-71